Time;durP1;ratioP1;P1;durP2;ratioP2;P2;SDS_P1;SDS_P2;PMS_P1;PMS_P2;Temp;Humidity;BMP_temperature;BMP_pressure;BME280_temperature;BME280_humidity;BME280_pressure;Samples;Min_cycle;Max_cycle;Signal;HPM_P1;HPM_P2
2022/01/16 00:00:26;;;;;;;32.40;10.37;;;3.80;99.90;;;;;;4967481;28;20441;-77
2022/01/16 00:05:25;;;;;;;22.63;13.98;;;3.80;99.90;;;;;;5002933;28;20118;-77
2022/01/16 00:07:53;;;;;;;16.30;14.03;;;3.80;99.90;;;;;;5002768;28;20060;-77
2022/01/16 00:10:19;;;;;;;26.57;13.77;;;3.80;99.90;;;;;;5002166;28;20125;-77
2022/01/16 00:12:49;;;;;;;18.10;12.37;;;3.80;99.90;;;;;;4985517;28;20080;-77
2022/01/16 00:15:20;;;;;;;20.40;15.40;;;3.80;99.90;;;;;;5002561;28;20080;-77
2022/01/16 00:17:56;;;;;;;20.13;13.73;;;3.80;99.90;;;;;;5002149;28;20045;-77
2022/01/16 00:20:24;;;;;;;18.53;14.63;;;3.80;99.90;;;;;;4984536;28;20129;-78
2022/01/16 00:22:50;;;;;;;29.30;18.60;;;3.80;99.90;;;;;;5002758;28;20654;-77
2022/01/16 00:25:16;;;;;;;21.77;14.47;;;3.80;99.90;;;;;;5003131;28;20038;-77
2022/01/16 00:27:42;;;;;;;23.97;17.47;;;3.80;99.90;;;;;;5003311;28;20046;-77
2022/01/16 00:30:09;;;;;;;21.17;15.27;;;3.80;99.90;;;;;;5002158;28;20061;-77
2022/01/16 00:32:35;;;;;;;23.73;16.40;;;3.80;99.90;;;;;;5016105;28;20103;-77
2022/01/16 00:35:01;;;;;;;37.23;17.40;;;3.80;99.90;;;;;;5002858;28;20046;-77
2022/01/16 00:37:27;;;;;;;39.53;17.57;;;3.80;99.90;;;;;;5002014;28;20511;-78
2022/01/16 00:39:53;;;;;;;28.00;18.07;;;3.80;99.90;;;;;;4984781;28;20081;-77
2022/01/16 00:42:18;;;;;;;25.97;14.33;;;3.80;99.90;;;;;;5002063;28;20046;-78
2022/01/16 00:44:44;;;;;;;20.40;13.37;;;3.80;99.90;;;;;;4985766;28;20100;-77
2022/01/16 00:47:10;;;;;;;31.13;14.60;;;3.80;99.90;;;;;;4983255;28;20112;-77
2022/01/16 00:49:39;;;;;;;21.60;16.90;;;3.80;99.90;;;;;;5002157;28;20077;-77
2022/01/16 00:52:06;;;;;;;21.00;14.87;;;3.70;99.90;;;;;;5002337;28;20052;-77
2022/01/16 00:54:31;;;;;;;15.03;13.47;;;3.70;99.90;;;;;;5001883;28;20037;-77
2022/01/16 00:56:57;;;;;;;21.77;16.63;;;3.80;99.90;;;;;;5001868;28;20052;-77
2022/01/16 00:59:22;;;;;;;54.63;18.67;;;3.80;99.90;;;;;;4984039;28;20050;-78
2022/01/16 01:01:48;;;;;;;26.30;16.53;;;3.80;99.90;;;;;;5000984;28;20243;-77
2022/01/16 01:04:14;;;;;;;26.38;15.75;;;3.80;99.90;;;;;;5002575;28;20662;-77
2022/01/16 01:06:40;;;;;;;19.70;13.47;;;3.80;99.90;;;;;;4980163;28;20042;-77
2022/01/16 01:09:05;;;;;;;29.77;18.00;;;3.80;99.90;;;;;;4982497;28;20661;-78
2022/01/16 01:11:31;;;;;;;23.27;15.37;;;3.80;99.90;;;;;;4981864;28;20838;-77
2022/01/16 01:16:50;;;;;;;23.87;18.27;;;3.80;99.90;;;;;;4982005;28;20042;-77
2022/01/16 01:19:18;;;;;;;30.23;17.17;;;3.80;99.90;;;;;;4964764;28;20050;-77
2022/01/16 01:21:43;;;;;;;22.70;16.00;;;3.80;99.90;;;;;;4982332;28;20073;-78
2022/01/16 01:24:09;;;;;;;30.83;17.70;;;3.80;99.90;;;;;;4982135;28;20717;-77
2022/01/16 01:26:42;;;;;;;25.10;17.00;;;3.80;99.90;;;;;;4964261;28;20511;-77
2022/01/16 01:29:08;;;;;;;25.17;17.00;;;3.80;99.90;;;;;;4971069;28;20124;-77
2022/01/16 01:31:33;;;;;;;16.10;13.90;;;3.80;99.90;;;;;;5000186;28;20133;-77
2022/01/16 01:33:59;;;;;;;29.00;15.67;;;3.80;99.90;;;;;;5001885;28;20052;-77
2022/01/16 01:36:25;;;;;;;29.93;18.53;;;3.80;99.90;;;;;;4983434;28;20086;-77
2022/01/16 01:38:50;;;;;;;23.27;19.27;;;3.80;99.90;;;;;;4983526;28;20069;-77
2022/01/16 01:41:16;;;;;;;19.93;17.60;;;3.80;99.90;;;;;;4984044;28;20092;-77
2022/01/16 01:51:44;;;;;;;28.80;21.20;;;3.80;99.90;;;;;;5000236;28;20124;-77
2022/01/16 01:54:11;;;;;;;21.87;18.10;;;3.80;99.90;;;;;;5001308;28;20037;-77
2022/01/16 01:56:39;;;;;;;38.67;20.37;;;3.80;99.90;;;;;;4999779;28;20118;-77
2022/01/16 01:59:06;;;;;;;32.77;17.07;;;3.90;99.90;;;;;;5000987;28;20644;-77
2022/01/16 02:01:33;;;;;;;33.73;18.47;;;3.80;99.90;;;;;;4982055;28;20073;-77
2022/01/16 02:03:59;;;;;;;39.17;19.17;;;3.80;99.90;;;;;;5000706;28;20042;-77
2022/01/16 02:06:30;;;;;;;30.97;15.03;;;3.90;99.90;;;;;;5000924;28;20783;-77
2022/01/16 02:08:58;;;;;;;35.40;18.93;;;3.90;99.90;;;;;;5001933;28;20050;-78
2022/01/16 02:11:28;;;;;;;35.17;18.87;;;3.90;99.90;;;;;;5004317;28;20065;-77
2022/01/16 02:14:02;;;;;;;32.97;17.20;;;3.90;99.90;;;;;;5005432;28;20617;-78
2022/01/16 02:28:01;;;;;;;27.03;17.43;;;3.90;99.90;;;;;;5004241;28;20100;-77
2022/01/16 02:35:38;;;;;;;31.17;19.37;;;3.90;99.90;;;;;;5003654;28;20093;-77
2022/01/16 02:38:06;;;;;;;24.27;16.30;;;3.90;99.90;;;;;;5004470;28;20062;-77
2022/01/16 02:40:31;;;;;;;32.87;16.97;;;3.90;99.90;;;;;;4986548;28;20046;-77
2022/01/16 02:42:57;;;;;;;33.13;16.90;;;4.00;99.90;;;;;;5004878;28;20052;-77
2022/01/16 02:45:31;;;;;;;42.27;19.50;;;4.00;99.90;;;;;;5004466;28;20042;-77
2022/01/16 02:48:04;;;;;;;36.40;19.23;;;4.00;99.90;;;;;;5003649;28;20042;-77
2022/01/16 02:50:30;;;;;;;33.38;19.13;;;4.00;99.90;;;;;;5004359;28;20067;-77
2022/01/16 02:52:56;;;;;;;24.27;17.37;;;4.00;99.90;;;;;;5004650;28;20081;-77
2022/01/16 02:55:23;;;;;;;34.13;18.43;;;4.00;99.90;;;;;;4986023;28;20089;-77
2022/01/16 02:57:51;;;;;;;34.88;18.08;;;4.10;99.90;;;;;;5003799;28;20053;-77
2022/01/16 03:00:17;;;;;;;31.87;18.33;;;4.10;99.90;;;;;;5004256;28;20706;-77
2022/01/16 03:02:43;;;;;;;44.50;16.13;;;4.10;99.90;;;;;;5003828;28;20048;-77
2022/01/16 03:05:09;;;;;;;25.70;17.23;;;4.10;99.90;;;;;;5004050;28;20050;-77
2022/01/16 03:07:35;;;;;;;40.23;23.30;;;4.10;99.90;;;;;;5003979;28;20088;-77
2022/01/16 03:10:40;;;;;;;35.00;19.77;;;4.10;99.90;;;;;;5004093;28;20046;-77
2022/01/16 03:12:58;;;;;;;34.17;17.17;;;4.10;99.90;;;;;;4985939;28;20046;-77
2022/01/16 03:15:25;;;;;;;40.27;21.50;;;4.10;99.90;;;;;;5004251;28;20045;-77
2022/01/16 03:23:12;;;;;;;28.00;18.77;;;4.20;99.90;;;;;;4985947;28;20133;-77
2022/01/16 03:25:37;;;;;;;57.93;21.27;;;4.20;99.90;;;;;;5003435;28;20120;-77
2022/01/16 03:28:03;;;;;;;30.10;21.83;;;4.30;99.90;;;;;;5003793;28;20760;-77
2022/01/16 03:30:29;;;;;;;30.52;19.08;;;4.20;99.90;;;;;;5003393;28;20464;-77
2022/01/16 03:32:54;;;;;;;27.92;19.67;;;4.30;99.90;;;;;;5002912;28;20427;-77
2022/01/16 03:35:20;;;;;;;23.95;15.98;;;4.30;99.90;;;;;;5003085;28;20042;-77
2022/01/16 03:37:46;;;;;;;55.53;22.83;;;4.30;99.90;;;;;;5003544;28;20034;-77
2022/01/16 03:40:12;;;;;;;23.53;18.37;;;4.30;99.90;;;;;;4986470;28;20045;-77
2022/01/16 03:42:39;;;;;;;47.47;21.50;;;4.30;99.90;;;;;;4985081;28;20042;-78
2022/01/16 03:45:07;;;;;;;40.25;21.48;;;4.30;99.90;;;;;;5003543;28;20099;-77
2022/01/16 03:47:33;;;;;;;34.87;19.77;;;4.40;99.90;;;;;;4985232;28;20052;-77
2022/01/16 03:49:59;;;;;;;41.03;21.77;;;4.40;99.90;;;;;;4985964;28;20471;-77
2022/01/16 03:52:25;;;;;;;45.95;22.30;;;4.40;99.90;;;;;;5002579;28;20052;-77
2022/01/16 03:54:51;;;;;;;32.30;21.75;;;4.40;99.90;;;;;;5003282;28;20627;-77
2022/01/16 03:57:16;;;;;;;51.83;20.50;;;4.40;99.90;;;;;;4985725;28;20045;-77
2022/01/16 03:59:42;;;;;;;23.38;21.00;;;4.40;99.90;;;;;;5003738;28;20472;-77
2022/01/16 04:02:07;;;;;;;26.42;19.58;;;4.40;99.90;;;;;;5002212;28;20065;-77
2022/01/16 04:04:33;;;;;;;35.17;20.67;;;4.40;99.90;;;;;;4984616;28;20483;-77
2022/01/16 04:07:01;;;;;;;29.88;19.52;;;4.50;99.90;;;;;;4985763;28;20448;-77
2022/01/16 04:09:27;;;;;;;27.67;20.15;;;4.50;99.90;;;;;;5002477;28;20087;-77
2022/01/16 04:11:56;;;;;;;40.75;20.48;;;4.50;99.90;;;;;;4984984;28;20061;-77
2022/01/16 04:15:31;;;;;;;28.75;18.02;;;4.50;99.90;;;;;;4985048;28;20081;-77
2022/01/16 04:17:12;;;;;;;37.80;18.25;;;4.50;99.90;;;;;;4984231;28;20119;-77
2022/01/16 04:19:38;;;;;;;30.65;20.58;;;4.50;99.90;;;;;;5002237;28;20042;-77
2022/01/16 04:22:04;;;;;;;33.63;20.30;;;4.50;99.90;;;;;;5003212;28;20050;-77
2022/01/16 04:24:29;;;;;;;37.58;19.15;;;4.60;99.90;;;;;;5002380;28;20112;-77
2022/01/16 04:26:55;;;;;;;45.60;20.70;;;4.60;99.90;;;;;;5001564;28;20045;-77
2022/01/16 04:29:20;;;;;;;23.53;18.77;;;4.60;99.90;;;;;;5002280;28;20381;-77
2022/01/16 04:31:46;;;;;;;27.20;20.67;;;4.60;99.90;;;;;;5001395;28;20049;-77
2022/01/16 04:34:12;;;;;;;31.90;18.33;;;4.70;99.90;;;;;;4985137;28;20136;-77
2022/01/16 04:36:37;;;;;;;25.13;20.40;;;4.60;99.90;;;;;;5002520;28;20191;-77
2022/01/16 04:39:09;;;;;;;25.08;19.65;;;4.60;99.90;;;;;;4968443;28;20062;-77
2022/01/16 04:44:19;;;;;;;29.20;19.52;;;4.70;99.90;;;;;;5001545;28;20745;-77
2022/01/16 04:46:46;;;;;;;34.97;19.05;;;4.70;99.90;;;;;;5002027;28;20034;-77
2022/01/16 04:49:12;;;;;;;28.17;16.65;;;4.70;99.90;;;;;;5002596;28;20048;-77
2022/01/16 04:51:38;;;;;;;32.42;22.20;;;4.70;99.90;;;;;;4984273;28;20124;-77
2022/01/16 04:54:04;;;;;;;31.50;18.53;;;4.70;99.90;;;;;;5002257;28;20407;-77
2022/01/16 04:56:29;;;;;;;30.13;17.67;;;4.70;99.90;;;;;;5002274;28;20057;-77
2022/01/16 04:58:55;;;;;;;30.95;21.75;;;4.70;99.90;;;;;;5001720;28;20042;-77
2022/01/16 05:01:21;;;;;;;23.02;16.02;;;4.70;99.90;;;;;;5000642;28;20378;-77
2022/01/16 05:03:46;;;;;;;52.53;18.58;;;4.70;99.90;;;;;;4984510;28;20118;-77
2022/01/16 05:06:12;;;;;;;25.38;16.38;;;4.80;99.90;;;;;;5002523;28;20046;-78
2022/01/16 05:08:38;;;;;;;28.23;18.85;;;4.80;99.90;;;;;;4983552;28;20046;-77
2022/01/16 05:11:06;;;;;;;29.42;20.27;;;4.80;99.90;;;;;;5001652;28;20129;-77
2022/01/16 05:18:50;;;;;;;24.63;20.55;;;4.80;99.90;;;;;;4984275;28;20085;-77
2022/01/16 05:21:16;;;;;;;44.65;24.40;;;4.80;99.90;;;;;;4984509;28;20041;-77
2022/01/16 05:23:42;;;;;;;48.22;24.35;;;4.80;99.90;;;;;;4984052;28;20091;-77
2022/01/16 05:26:08;;;;;;;39.65;22.55;;;4.80;99.90;;;;;;5001954;28;20045;-77
2022/01/16 05:28:34;;;;;;;33.58;18.00;;;4.80;99.90;;;;;;5001030;28;20484;-77
2022/01/16 05:31:00;;;;;;;28.80;20.70;;;4.80;99.90;;;;;;4983060;28;20091;-77
2022/01/16 05:33:26;;;;;;;35.20;18.33;;;4.80;99.90;;;;;;5001527;28;20091;-77
2022/01/16 05:35:52;;;;;;;37.15;23.15;;;4.80;99.90;;;;;;5001477;28;20076;-77
2022/01/16 05:38:18;;;;;;;46.72;22.50;;;4.90;99.90;;;;;;4983137;28;20050;-77
2022/01/16 05:40:44;;;;;;;19.40;17.20;;;4.80;99.90;;;;;;5001406;28;20495;-78
2022/01/16 05:43:10;;;;;;;29.77;20.50;;;4.90;99.90;;;;;;5000841;28;20489;-78
2022/01/16 05:45:37;;;;;;;36.15;20.38;;;4.90;99.90;;;;;;5000941;28;20161;-78
2022/01/16 05:48:03;;;;;;;19.17;15.93;;;4.90;99.90;;;;;;4999184;28;20416;-77
2022/01/16 05:50:30;;;;;;;29.75;20.25;;;4.90;99.90;;;;;;5000680;28;20084;-77
2022/01/16 05:52:55;;;;;;;19.48;16.13;;;4.90;99.90;;;;;;5001839;28;20528;-77
2022/01/16 05:55:22;;;;;;;36.15;21.35;;;4.90;99.90;;;;;;5000996;28;20120;-77
2022/01/16 05:57:48;;;;;;;20.88;18.42;;;4.90;99.90;;;;;;5001115;28;20481;-77
2022/01/16 06:00:14;;;;;;;20.15;17.80;;;4.90;99.90;;;;;;5001341;28;20042;-77
2022/01/16 06:02:40;;;;;;;29.42;17.92;;;4.90;99.90;;;;;;4982242;28;20389;-77
2022/01/16 06:05:07;;;;;;;30.98;20.23;;;4.90;99.90;;;;;;5001510;28;20338;-78
2022/01/16 06:07:32;;;;;;;28.25;19.75;;;5.00;99.90;;;;;;4983164;28;20053;-78
2022/01/16 06:09:58;;;;;;;28.27;18.45;;;5.00;99.90;;;;;;5000687;28;20409;-77
2022/01/16 06:12:24;;;;;;;29.33;18.83;;;5.00;99.90;;;;;;5001363;28;20951;-77
2022/01/16 06:14:49;;;;;;;26.08;19.30;;;5.00;99.90;;;;;;4983147;28;20132;-78
2022/01/16 06:17:15;;;;;;;22.27;17.85;;;5.00;99.90;;;;;;5000291;28;20065;-78
2022/01/16 06:19:40;;;;;;;38.70;21.08;;;5.00;99.90;;;;;;4983497;28;20046;-77
2022/01/16 06:22:06;;;;;;;23.70;19.67;;;5.00;99.90;;;;;;4983431;28;20772;-78
2022/01/16 06:24:32;;;;;;;23.92;17.77;;;5.10;99.90;;;;;;5000556;28;20610;-77
2022/01/16 06:26:57;;;;;;;22.83;16.67;;;5.00;99.90;;;;;;5001214;28;20049;-78
2022/01/16 06:29:23;;;;;;;24.67;19.42;;;5.10;99.90;;;;;;5000715;28;20045;-78
2022/01/16 06:31:49;;;;;;;40.65;20.60;;;5.10;99.90;;;;;;4999974;28;20062;-78
2022/01/16 06:34:14;;;;;;;25.90;17.73;;;5.10;99.90;;;;;;5000934;28;20057;-77
2022/01/16 06:36:40;;;;;;;32.80;18.27;;;5.10;99.90;;;;;;4983283;28;20093;-78
2022/01/16 06:39:09;;;;;;;23.90;18.50;;;5.10;99.90;;;;;;5000567;28;20046;-78
2022/01/16 06:41:35;;;;;;;18.73;16.67;;;5.10;99.90;;;;;;5000212;28;20073;-78
2022/01/16 06:44:01;;;;;;;25.02;17.42;;;5.10;99.90;;;;;;4983369;28;20054;-78
2022/01/16 06:46:27;;;;;;;19.73;17.55;;;5.10;99.90;;;;;;4999927;28;20437;-78
2022/01/16 06:48:53;;;;;;;18.17;16.20;;;5.20;99.90;;;;;;5000602;28;20038;-78
2022/01/16 06:51:20;;;;;;;23.13;17.23;;;5.20;99.90;;;;;;4999002;28;20049;-78
2022/01/16 06:53:47;;;;;;;24.08;16.33;;;5.20;99.90;;;;;;5001066;28;20088;-77
2022/01/16 06:56:13;;;;;;;23.23;15.52;;;5.20;99.90;;;;;;5003529;28;20042;-78
2022/01/16 06:58:39;;;;;;;19.35;15.15;;;5.20;99.90;;;;;;5004016;28;20049;-78
2022/01/16 07:01:04;;;;;;;19.23;15.73;;;5.20;99.90;;;;;;5002927;28;20034;-78
2022/01/16 07:03:30;;;;;;;15.73;13.18;;;5.20;99.90;;;;;;5004214;28;20073;-78
2022/01/16 07:05:57;;;;;;;24.00;14.95;;;5.20;99.90;;;;;;5004202;28;20048;-78
2022/01/16 07:08:25;;;;;;;19.20;14.23;;;5.20;99.90;;;;;;5003599;28;20046;-78
2022/01/16 07:10:50;;;;;;;14.77;12.57;;;5.30;99.90;;;;;;5003959;28;20038;-78
2022/01/16 07:13:17;;;;;;;14.40;12.88;;;5.30;99.90;;;;;;5004784;28;20107;-78
2022/01/16 07:15:42;;;;;;;19.55;16.42;;;5.30;99.90;;;;;;5002069;28;20480;-77
2022/01/16 07:18:08;;;;;;;19.95;13.40;;;5.30;99.90;;;;;;5003417;28;20048;-78
2022/01/16 07:20:34;;;;;;;18.08;11.65;;;5.30;99.90;;;;;;5003526;28;20050;-78
2022/01/16 07:22:59;;;;;;;13.48;11.60;;;5.30;99.90;;;;;;4986347;28;20473;-78
2022/01/16 07:25:25;;;;;;;16.95;11.25;;;5.30;99.90;;;;;;5003760;28;20046;-77
2022/01/16 07:27:50;;;;;;;12.30;11.00;;;5.30;99.90;;;;;;4986129;28;20045;-78
2022/01/16 07:30:16;;;;;;;18.05;13.57;;;5.30;99.90;;;;;;5004201;28;20038;-78
2022/01/16 07:32:41;;;;;;;13.73;11.93;;;5.30;99.90;;;;;;4985918;28;20056;-78
2022/01/16 07:35:07;;;;;;;13.32;9.52;;;5.40;99.90;;;;;;5003389;28;20050;-78
2022/01/16 07:37:33;;;;;;;18.00;14.23;;;5.30;99.90;;;;;;5003247;28;20060;-78
2022/01/16 07:39:59;;;;;;;15.80;13.02;;;5.30;99.90;;;;;;4985778;28;20378;-78
2022/01/16 07:42:24;;;;;;;8.73;7.93;;;5.30;99.90;;;;;;4985134;28;20422;-78
2022/01/16 07:44:50;;;;;;;11.80;9.00;;;5.30;99.90;;;;;;4981414;28;20035;-77
2022/01/16 07:47:15;;;;;;;18.08;10.52;;;5.40;99.90;;;;;;4998416;28;20128;-78
2022/01/16 07:49:41;;;;;;;13.05;11.70;;;5.30;99.90;;;;;;5001380;28;20519;-78
2022/01/16 07:52:07;;;;;;;15.68;12.52;;;5.40;99.90;;;;;;5001412;28;20060;-78
2022/01/16 07:54:32;;;;;;;14.63;9.73;;;5.40;99.90;;;;;;5002068;28;20034;-78
2022/01/16 07:56:58;;;;;;;20.63;11.68;;;5.40;99.90;;;;;;5002289;28;20041;-78
2022/01/16 07:59:23;;;;;;;13.32;10.48;;;5.40;99.90;;;;;;4984347;28;20096;-78
2022/01/16 08:01:49;;;;;;;14.75;9.82;;;5.40;99.90;;;;;;5020596;28;20033;-78
2022/01/16 08:04:14;;;;;;;14.68;10.00;;;5.40;99.90;;;;;;5004572;28;20045;-78
2022/01/16 08:06:40;;;;;;;12.93;11.30;;;5.40;99.90;;;;;;5002771;28;20188;-77
2022/01/16 08:09:06;;;;;;;10.32;9.35;;;5.40;99.90;;;;;;4976118;28;20637;-78
2022/01/16 08:11:31;;;;;;;19.90;13.52;;;5.40;99.90;;;;;;4987062;28;20041;-78
2022/01/16 08:13:57;;;;;;;12.90;9.63;;;5.40;99.90;;;;;;4997353;28;20042;-78
2022/01/16 08:16:22;;;;;;;23.10;10.50;;;5.40;99.90;;;;;;4999893;28;20278;-78
2022/01/16 08:18:48;;;;;;;12.82;10.57;;;5.50;99.90;;;;;;5014201;28;20049;-78
2022/01/16 08:21:14;;;;;;;10.52;9.50;;;5.40;99.90;;;;;;4968354;28;20428;-78
2022/01/16 08:23:39;;;;;;;14.45;10.80;;;5.50;99.90;;;;;;5007341;28;20755;-78
2022/01/16 08:26:05;;;;;;;15.57;11.43;;;5.50;99.90;;;;;;5004896;28;20056;-78
2022/01/16 08:28:31;;;;;;;11.52;10.40;;;5.50;99.90;;;;;;5022360;28;20041;-78
2022/01/16 08:30:56;;;;;;;18.23;11.35;;;5.50;99.90;;;;;;5006702;28;20130;-78
2022/01/16 08:33:22;;;;;;;12.57;11.27;;;5.50;99.90;;;;;;4973975;28;20134;-78
2022/01/16 08:35:48;;;;;;;11.50;10.25;;;5.60;99.90;;;;;;4990484;28;20038;-78
2022/01/16 08:38:13;;;;;;;12.02;10.43;;;5.60;99.90;;;;;;5000480;28;20494;-82
2022/01/16 08:40:39;;;;;;;9.85;8.38;;;5.60;99.90;;;;;;5009203;28;20070;-82
2022/01/16 08:43:08;;;;;;;9.15;8.45;;;5.60;99.90;;;;;;5002383;28;20080;-79
2022/01/16 08:45:39;;;;;;;8.90;8.20;;;5.70;99.90;;;;;;4974106;28;20046;-79
2022/01/16 08:48:06;;;;;;;16.40;11.32;;;5.60;99.90;;;;;;4992592;28;20104;-79
2022/01/16 08:50:34;;;;;;;14.75;10.48;;;5.70;99.90;;;;;;4986828;28;20100;-79
2022/01/16 08:52:59;;;;;;;13.75;10.60;;;5.70;99.90;;;;;;4986539;28;20034;-79
2022/01/16 08:55:25;;;;;;;16.02;8.75;;;5.70;99.90;;;;;;4986813;28;20142;-79
2022/01/16 08:57:51;;;;;;;12.95;11.48;;;5.70;99.90;;;;;;4978325;28;20050;-79
2022/01/16 09:00:17;;;;;;;12.10;11.00;;;5.70;99.90;;;;;;4999933;28;20045;-80
2022/01/16 09:02:42;;;;;;;11.77;10.50;;;5.80;99.90;;;;;;4981571;28;20630;-79
2022/01/16 09:05:09;;;;;;;15.85;12.40;;;5.80;99.90;;;;;;4975315;28;20053;-80
2022/01/16 09:07:34;;;;;;;13.18;11.10;;;5.80;99.90;;;;;;5000856;28;20034;-79
2022/01/16 09:10:01;;;;;;;18.27;12.63;;;5.80;99.90;;;;;;5001801;28;20053;-78
2022/01/16 09:12:28;;;;;;;20.23;10.60;;;5.80;99.90;;;;;;4984152;28;20073;-78
2022/01/16 09:14:55;;;;;;;26.73;10.88;;;5.80;99.90;;;;;;4978662;28;20321;-88
2022/01/16 09:17:21;;;;;;;14.60;7.97;;;5.90;99.90;;;;;;4999218;28;20146;-78
2022/01/16 09:19:47;;;;;;;21.20;8.95;;;5.90;99.90;;;;;;5001417;28;20149;-78
2022/01/16 09:22:12;;;;;;;22.27;12.73;;;5.90;99.90;;;;;;5001332;28;20046;-78
2022/01/16 09:24:38;;;;;;;10.02;9.02;;;5.90;99.90;;;;;;4999579;28;20049;-78
2022/01/16 09:27:04;;;;;;;17.55;11.70;;;5.90;99.90;;;;;;5001654;28;20042;-88
2022/01/16 09:29:29;;;;;;;11.75;10.55;;;5.90;99.90;;;;;;4968788;28;20108;-86
2022/01/16 09:31:55;;;;;;;18.08;7.85;;;6.00;99.90;;;;;;4982554;28;20492;-84
2022/01/16 09:34:21;;;;;;;28.30;9.32;;;6.00;99.90;;;;;;5000396;28;20489;-84
2022/01/16 09:36:46;;;;;;;9.90;9.05;;;6.00;99.90;;;;;;4983654;28;20041;-84
2022/01/16 09:39:15;;;;;;;10.27;8.30;;;6.00;99.90;;;;;;4995107;28;20522;-83
2022/01/16 09:41:42;;;;;;;18.83;8.50;;;6.10;99.90;;;;;;5006324;28;20744;-82
2022/01/16 09:44:07;;;;;;;13.23;9.95;;;6.10;99.90;;;;;;4990392;28;20128;-83
2022/01/16 09:46:36;;;;;;;6.63;6.10;;;6.10;99.90;;;;;;4980925;28;20445;-84
2022/01/16 09:49:04;;;;;;;7.47;6.78;;;6.10;99.90;;;;;;5000536;28;20045;-82
2022/01/16 09:51:30;;;;;;;7.40;6.70;;;6.20;99.90;;;;;;4982408;28;20037;-84
2022/01/16 09:53:56;;;;;;;9.52;4.85;;;6.20;99.90;;;;;;4999409;28;20103;-80
2022/01/16 09:56:22;;;;;;;15.63;5.38;;;6.20;99.90;;;;;;4983064;28;20556;-78
2022/01/16 09:58:48;;;;;;;5.97;5.47;;;6.20;99.90;;;;;;4982270;28;20052;-77
2022/01/16 10:01:14;;;;;;;11.98;6.35;;;6.20;99.90;;;;;;4982492;28;20061;-77
2022/01/16 10:03:46;;;;;;;5.13;4.72;;;6.20;99.90;;;;;;5000213;28;20103;-78
2022/01/16 10:06:17;;;;;;;28.23;8.25;;;6.20;99.90;;;;;;4979785;28;20108;-78
2022/01/16 10:08:44;;;;;;;8.77;7.43;;;6.20;99.90;;;;;;5001111;28;20041;-77
2022/01/16 10:11:40;;;;;;;6.43;5.80;;;6.30;99.90;;;;;;4980642;28;20088;-84
2022/01/16 10:14:22;;;;;;;8.95;6.78;;;6.30;99.90;;;;;;5000722;28;20045;-85
2022/01/16 10:16:49;;;;;;;7.03;4.60;;;6.30;99.90;;;;;;4942190;28;20107;-84
2022/01/16 10:19:26;;;;;;;9.88;6.32;;;6.30;99.90;;;;;;4986880;28;20046;-79
2022/01/16 10:22:06;;;;;;;5.55;4.88;;;6.30;99.90;;;;;;4991552;28;20036;-84
2022/01/16 10:24:34;;;;;;;10.75;5.60;;;6.30;99.90;;;;;;4960089;28;20080;-83
2022/01/16 10:27:08;;;;;;;19.20;4.10;;;6.40;99.90;;;;;;4989182;28;20396;-77
2022/01/16 10:29:48;;;;;;;7.78;5.95;;;6.40;99.90;;;;;;4995669;28;20056;-87
2022/01/16 10:32:22;;;;;;;9.38;6.05;;;6.40;99.90;;;;;;4992146;28;20096;-80
2022/01/16 10:35:34;;;;;;;4.55;3.55;;;6.40;99.90;;;;;;4997116;28;20058;-89
2022/01/16 10:38:09;;;;;;;12.50;5.90;;;6.40;99.90;;;;;;5031950;22;20627;-83
2022/01/16 10:40:38;;;;;;;7.57;4.53;;;6.40;99.90;;;;;;5059946;28;20048;-82
2022/01/16 10:43:13;;;;;;;6.88;4.22;;;6.40;99.90;;;;;;5042705;28;20048;-84
2022/01/16 10:45:40;;;;;;;12.60;5.07;;;6.40;99.90;;;;;;5062557;28;20531;-84
2022/01/16 10:48:06;;;;;;;4.50;3.10;;;6.40;99.90;;;;;;5034111;28;20364;-84
2022/01/16 10:50:38;;;;;;;4.53;4.13;;;6.40;99.90;;;;;;5063009;28;20486;-84
2022/01/16 10:53:04;;;;;;;7.05;4.07;;;6.40;99.90;;;;;;5050934;28;20407;-81
2022/01/16 10:55:34;;;;;;;6.70;3.40;;;6.40;99.90;;;;;;5064311;28;20402;-81
2022/01/16 10:58:15;;;;;;;7.15;4.30;;;6.40;99.90;;;;;;5063171;28;20051;-79
2022/01/16 11:00:44;;;;;;;4.85;3.90;;;6.50;99.90;;;;;;5044172;28;20048;-78
2022/01/16 11:03:11;;;;;;;5.65;4.65;;;6.50;99.90;;;;;;5062820;28;20056;-79
2022/01/16 11:05:46;;;;;;;19.17;4.03;;;6.50;99.90;;;;;;5061149;28;20051;-77
2022/01/16 11:08:14;;;;;;;9.57;4.82;;;6.50;99.90;;;;;;5060667;28;20078;-77
2022/01/16 11:10:45;;;;;;;7.55;4.40;;;6.50;99.90;;;;;;5044238;28;20369;-76
2022/01/16 11:13:13;;;;;;;10.90;3.83;;;6.50;99.90;;;;;;5030731;28;20407;-77
2022/01/16 11:15:42;;;;;;;6.63;3.15;;;6.50;99.90;;;;;;5026045;28;20090;-77
2022/01/16 11:18:09;;;;;;;3.45;3.10;;;6.50;99.90;;;;;;5025940;28;20049;-77
2022/01/16 11:20:37;;;;;;;8.00;4.55;;;6.50;99.90;;;;;;5078155;28;20500;-77
2022/01/16 11:23:13;;;;;;;5.30;3.72;;;6.60;99.90;;;;;;5065862;28;20044;-77
2022/01/16 11:25:39;;;;;;;3.53;3.22;;;6.60;99.90;;;;;;5083411;28;20410;-79
2022/01/16 11:28:17;;;;;;;13.10;5.63;;;6.60;99.90;;;;;;5075339;28;20127;-78
2022/01/16 11:30:50;;;;;;;7.57;4.00;;;6.60;99.90;;;;;;5054621;28;20548;-77
2022/01/16 11:33:18;;;;;;;3.72;3.33;;;6.60;99.90;;;;;;5063939;28;20036;-79
2022/01/16 11:35:52;;;;;;;7.72;3.70;;;6.60;99.90;;;;;;5061359;28;20085;-82
2022/01/16 11:38:24;;;;;;;3.67;3.33;;;6.60;99.90;;;;;;5060958;28;20091;-93
2022/01/16 11:40:50;;;;;;;6.25;5.70;;;6.60;99.90;;;;;;5030513;28;20459;-93
2022/01/16 11:43:25;;;;;;;4.85;3.97;;;6.70;99.90;;;;;;5064296;28;20044;-91
2022/01/16 11:46:01;;;;;;;9.10;4.28;;;6.70;99.90;;;;;;5044887;28;20044;-84
2022/01/16 11:48:53;;;;;;;11.52;5.95;;;6.70;99.90;;;;;;5063613;28;20080;-84
2022/01/16 11:51:39;;;;;;;4.05;3.75;;;6.70;99.90;;;;;;5062762;28;20716;-86
2022/01/16 11:54:11;;;;;;;14.27;3.88;;;6.70;99.90;;;;;;5045982;28;20060;-84
2022/01/16 11:56:40;;;;;;;3.30;2.80;;;6.70;99.90;;;;;;5043490;28;20135;-86
2022/01/16 11:59:12;;;;;;;10.18;4.20;;;6.70;99.90;;;;;;5059962;28;20568;-80
2022/01/16 12:01:48;;;;;;;4.78;3.40;;;6.70;99.90;;;;;;5061323;28;20101;-80
2022/01/16 12:04:46;;;;;;;5.78;5.25;;;6.70;99.90;;;;;;5044746;28;20135;-80
2022/01/16 12:07:17;;;;;;;5.05;4.05;;;6.70;99.90;;;;;;4994807;28;20445;-80
2022/01/16 12:12:11;;;;;;;5.50;3.63;;;6.70;99.90;;;;;;5045020;28;20068;-80
2022/01/16 12:15:32;;;;;;;6.18;2.58;;;6.70;99.90;;;;;;5054035;28;20080;-80
2022/01/16 12:17:58;;;;;;;5.80;5.38;;;6.70;99.90;;;;;;5014032;28;20498;-82
2022/01/16 12:20:26;;;;;;;10.07;3.85;;;6.80;99.90;;;;;;5039975;28;20056;-79
2022/01/16 12:23:03;;;;;;;7.75;2.95;;;6.70;99.90;;;;;;5040401;28;20045;-80
2022/01/16 12:25:36;;;;;;;4.20;3.85;;;6.80;99.90;;;;;;5080500;28;20128;-80
2022/01/16 12:28:04;;;;;;;22.17;3.95;;;6.80;99.90;;;;;;5063571;28;20458;-80
2022/01/16 12:30:39;;;;;;;9.02;3.60;;;6.80;99.90;;;;;;5067838;28;20323;-80
2022/01/16 12:33:26;;;;;;;4.43;4.10;;;6.80;99.90;;;;;;5058013;28;20041;-79
2022/01/16 12:35:51;;;;;;;5.80;3.85;;;6.80;99.90;;;;;;5042758;28;20086;-79
2022/01/16 12:38:25;;;;;;;5.65;4.50;;;6.80;99.90;;;;;;5059791;28;20805;-80
2022/01/16 12:41:03;;;;;;;3.47;3.13;;;6.80;99.90;;;;;;5042264;28;20046;-79
2022/01/16 12:43:40;;;;;;;4.45;3.90;;;6.80;99.90;;;;;;5058895;28;20470;-80
2022/01/16 12:46:08;;;;;;;11.10;5.57;;;6.80;99.90;;;;;;5058401;28;20049;-80
2022/01/16 12:48:57;;;;;;;22.95;3.42;;;6.80;99.90;;;;;;5040934;28;20419;-80
2022/01/16 12:51:25;;;;;;;10.75;4.75;;;6.80;99.90;;;;;;5041448;28;20037;-80
2022/01/16 12:53:58;;;;;;;25.02;11.30;;;6.80;99.90;;;;;;5056923;28;20171;-81
2022/01/16 12:56:37;;;;;;;10.18;6.32;;;6.80;99.90;;;;;;5042492;28;20391;-80
2022/01/16 12:59:21;;;;;;;5.70;5.13;;;6.80;99.90;;;;;;5059915;28;20338;-80
2022/01/16 13:01:52;;;;;;;6.30;3.97;;;6.80;99.90;;;;;;5025429;28;20539;-80
2022/01/16 13:04:24;;;;;;;5.85;5.30;;;6.80;99.90;;;;;;5059372;28;20531;-79
2022/01/16 13:06:50;;;;;;;4.45;3.15;;;6.80;99.90;;;;;;5060522;28;20323;-79
2022/01/16 13:09:15;;;;;;;16.45;7.68;;;6.80;99.90;;;;;;5042952;28;20538;-80
2022/01/16 13:11:44;;;;;;;16.30;4.22;;;6.80;99.90;;;;;;5059589;28;20032;-79
2022/01/16 13:14:15;;;;;;;8.35;4.43;;;6.80;99.90;;;;;;5060001;28;20123;-80
2022/01/16 13:16:46;;;;;;;10.87;4.33;;;6.80;99.90;;;;;;5058470;28;20036;-80
2022/01/16 13:19:17;;;;;;;4.80;4.40;;;6.90;99.90;;;;;;5060177;28;20334;-79
2022/01/16 13:21:47;;;;;;;6.68;3.92;;;6.90;99.90;;;;;;5042570;28;20044;-79
2022/01/16 13:24:26;;;;;;;13.02;3.85;;;6.90;99.90;;;;;;5070782;28;20036;-81
2022/01/16 13:26:52;;;;;;;5.05;4.55;;;6.90;99.90;;;;;;5062033;28;20101;-79
2022/01/16 13:29:20;;;;;;;11.32;4.47;;;6.90;99.90;;;;;;5078649;28;20036;-80
2022/01/16 13:31:47;;;;;;;15.60;4.75;;;6.90;99.90;;;;;;5044030;28;20041;-80
2022/01/16 13:34:16;;;;;;;15.10;6.65;;;6.90;99.90;;;;;;5022693;28;20102;-81